Flight Track Log - Related Links

Times and Time Zones

All times are in EDT time to prevent confusion due to time zone crossing. See the TMC875 flight status page for this flight to view local times or setup timezone preferences in your user account.

Time Position Orientation Groundspeed Altitude Reporting Facility
EDT Latitude Longitude Course Direction KTS MPH feet Rate Location/Type
Wed 10:10:33 AM 47.5414 -122.3172 319° Northwest 171 197 1,100  Level Seattle Center
Wed 10:11:19 AM 47.5767 -122.3625 319° Northwest 204 235 3,200 2,818 Climbing Seattle Center
Wed 10:11:39 AM 47.5911 -122.3819 318° Northwest 223 257 4,200 2,951 Climbing Seattle Center
Wed 10:12:20 AM 47.5853 -122.4339 261° West 221 254 6,200 3,148 Climbing Seattle Center
Wed 10:12:40 AM 47.5656 -122.4386 189° South 230 265 7,400 3,443 Climbing Seattle Center
Wed 10:13:21 AM 47.5186 -122.4261 170° South 247 284 9,700 3,176 Climbing Seattle Center
Wed 10:14:22 AM 47.4461 -122.3978 165° South 277 319 12,800 2,951 Climbing Seattle Center
Wed 10:15:23 AM 47.3606 -122.3544 161° South 306 352 15,700 2,607 Climbing Seattle Center
Wed 10:16:24 AM 47.2769 -122.3125 161° South 326 375 18,100 2,361 Climbing Seattle Center
Wed 10:17:25 AM 47.1878 -122.2708 162° South 337 388 20,500 2,213 Climbing Seattle Center
Wed 10:18:26 AM 47.0933 -122.2242 161° South 358 412 22,600 2,016 Climbing Seattle Center
Wed 10:19:27 AM 46.9942 -122.1739 161° South 379 436 24,600 1,983 Climbing Seattle Center
Wed 10:20:27 AM 46.8914 -122.1239 162° South 391 450 26,600 2,033 Climbing Seattle Center
Wed 10:21:28 AM 46.7900 -122.0544 155° Southeast 405 466 28,700 2,164 Climbing Seattle Center
Wed 10:22:29 AM 46.7003 -121.9017 131° Southeast 419 482 31,000 1,918 Climbing Seattle Center
Wed 10:23:30 AM 46.6369 -121.7572 123° Southeast 429 494 32,600 1,525 Climbing Seattle Center
Wed 10:24:31 AM 46.5708 -121.6142 124° Southeast 430 495 34,100 1,328 Climbing Seattle Center
Wed 10:25:32 AM 46.5108 -121.4792 123° Southeast 435 501 35,300 1,082 Climbing Seattle Center
Wed 10:26:33 AM 46.4442 -121.3319 123° Southeast 437 503 36,300 984 Climbing Seattle Center
Wed 10:27:34 AM 46.3764 -121.1806 123° Southeast 446 513 37,300 1,131 Climbing Seattle Center
Wed 10:28:35 AM 46.2931 -121.0017 124° Southeast 447 514 38,600 984 Climbing Seattle Center
Wed 10:29:36 AM 46.2256 -120.8522 123° Southeast 445 512 39,300 585 Climbing Seattle Center
Wed 10:30:38 AM 46.1558 -120.7008 124° Southeast 451 519 39,800 488 Climbing Seattle Center
Wed 10:31:39 AM 46.0853 -120.5494 124° Southeast 455 524 40,300 541 Climbing Seattle Center
Wed 10:32:40 AM 46.0136 -120.3956 124° Southeast 461 531 40,900 344 Climbing Seattle Center
Wed 10:33:41 AM 45.9414 -120.2428 124° Southeast 463 533 41,000 49 Climbing Seattle Center
Wed 10:34:42 AM 45.8678 -120.0869 124° Southeast 469 540 41,000  Level Seattle Center
Wed 10:35:43 AM 45.7950 -119.9322 124° Southeast 468 539 41,000  Level Seattle Center
Wed 10:36:44 AM 45.7211 -119.7789 125° Southeast 466 536 41,000  Level Seattle Center
Wed 10:37:45 AM 45.6475 -119.6258 124° Southeast 467 537 41,000  Level Seattle Center
Wed 10:38:46 AM 45.5739 -119.4725 124° Southeast 467 537 41,000  Level Seattle Center
Wed 10:39:47 AM 45.4997 -119.3194 125° Southeast 467 537 41,000  Level Seattle Center
Wed 10:40:48 AM 45.4247 -119.1667 125° Southeast 468 539 41,000  Level Seattle Center
Wed 10:41:49 AM 45.3511 -119.0144 124° Southeast 467 537 41,000  Level Seattle Center
Wed 10:42:50 AM 45.2600 -118.8322 125° Southeast 469 540 41,000  Level Seattle Center
Wed 10:43:51 AM 45.1844 -118.6803 125° Southeast 469 540 41,000  Level Seattle Center
Wed 10:44:52 AM 45.1097 -118.5300 125° Southeast 469 540 41,000  Level Seattle Center
Wed 10:45:53 AM 45.0336 -118.3794 126° Southeast 470 541 41,000  Level Seattle Center
Wed 10:46:47 AM 44.9725 -118.2592 126° Southeast 468 539 41,000  Level Salt Lake Center
Wed 10:47:56 AM 44.8856 -118.0872 125° Southeast 469 540 41,000  Level Seattle Center
Wed 10:48:57 AM 44.8000 -117.9208 126° Southeast 470 541 41,000  Level Seattle Center
Wed 10:49:53 AM 44.7283 -117.7792 125° Southeast 468 539 41,000  Level Salt Lake Center
Wed 10:50:55 AM 44.6567 -117.6367 125° Southeast 466 536 41,000  Level Salt Lake Center
Wed 10:51:57 AM 44.5717 -117.4742 126° Southeast 466 536 41,000  Level Salt Lake Center
Wed 10:52:59 AM 44.4992 -117.3333 126° Southeast 466 536 41,000  Level Salt Lake Center
Wed 10:54:01 AM 44.4119 -117.1664 126° Southeast 472 543 41,000  Level Salt Lake Center
Wed 10:55:03 AM 44.3372 -117.0253 126° Southeast 475 547 41,000  Level Salt Lake Center
Wed 10:56:05 AM 44.2492 -116.8592 126° Southeast 479 551 41,000  Level Salt Lake Center
Wed 10:57:07 AM 44.1739 -116.7186 127° Southeast 476 548 41,000  Level Salt Lake Center
Wed 10:58:09 AM 44.0847 -116.5544 127° Southeast 472 543 41,000  Level Salt Lake Center
Wed 10:59:11 AM 44.0106 -116.4150 126° Southeast 470 541 41,000  Level Salt Lake Center
Wed 11:00:13 AM 43.9236 -116.2525 127° Southeast 470 541 41,000  Level Salt Lake Center
Wed 11:01:15 AM 43.8492 -116.1144 127° Southeast 469 540 41,000  Level Salt Lake Center
Wed 11:02:17 AM 43.7608 -115.9522 127° Southeast 473 544 41,000  Level Salt Lake Center
Wed 11:03:19 AM 43.6850 -115.8125 127° Southeast 475 547 41,000  Level Salt Lake Center
Wed 11:04:21 AM 43.5964 -115.6508 127° Southeast 476 548 41,000  Level Salt Lake Center
Wed 11:05:23 AM 43.5194 -115.5133 128° Southeast 472 543 41,000  Level Salt Lake Center
Wed 11:06:25 AM 43.4297 -115.3511 127° Southeast 478 550 41,000  Level Salt Lake Center
Wed 11:07:27 AM 43.3531 -115.2131 127° Southeast 476 548 41,000  Level Salt Lake Center
Wed 11:08:29 AM 43.2753 -115.0758 128° Southeast 476 548 41,000  Level Salt Lake Center
Wed 11:09:31 AM 43.1853 -114.9150 127° Southeast 476 548 41,000  Level Salt Lake Center
Wed 11:10:33 AM 43.1078 -114.7792 128° Southeast 473 544 41,000  Level Salt Lake Center
Wed 11:11:35 AM 43.0183 -114.6206 128° Southeast 473 544 41,000  Level Salt Lake Center
Wed 11:12:37 AM 42.9406 -114.4864 128° Southeast 471 542 41,000  Level Salt Lake Center
Wed 11:13:39 AM 42.8522 -114.3342 128° Southeast 475 547 41,000  Level Salt Lake Center
Wed 11:14:41 AM 42.7706 -114.1939 128° Southeast 473 544 41,000 -1,210 Level Salt Lake Center
Wed 11:15:43 AM 42.6900 -114.0531 128° Southeast 472 543 38,500 -2,226 Descending Salt Lake Center
Wed 11:16:45 AM 42.6083 -113.9125 128° Southeast 477 549 36,400 -2,323 Descending Salt Lake Center
Wed 11:17:47 AM 42.4986 -113.7547 133° Southeast 478 550 33,700 -2,371 Descending Salt Lake Center
Wed 11:18:49 AM 42.4019 -113.6261 135° Southeast 486 559 31,500 -2,129 Descending Salt Lake Center
Wed 11:19:51 AM 42.3053 -113.4981 136° Southeast 487 560 29,300 -1,200 Descending Salt Lake Center
Wed 11:20:54 AM 42.2078 -113.3694 136° Southeast 489 563 29,000 -144 Descending Salt Lake Center
Wed 11:21:56 AM 42.1106 -113.2422 136° Southeast 488 562 29,000  Level Salt Lake Center
Wed 11:22:58 AM 42.0161 -113.1167 135° Southeast 480 552 29,000 -1,016 Level Salt Lake Center
Wed 11:24:00 AM 41.9006 -112.9664 136° Southeast 481 554 26,900 -2,177 Descending Salt Lake Center
Wed 11:25:02 AM 41.8078 -112.8442 136° Southeast 471 542 24,500 -2,371 Descending Salt Lake Center
Wed 11:26:04 AM 41.7158 -112.7264 136° Southeast 461 531 22,000 -2,465 Descending Salt Lake Center
Wed 11:27:11 AM 41.6139 -112.5872 134° Southeast 434 499 19,200 -2,447 Descending Salt Lake Center
Wed 11:27:47 AM 41.5628 -112.5211 136° Southeast 429 494 17,800 -1,895 Descending Salt Lake Center
Wed 11:28:08 AM 41.5414 -112.5036 149° Southeast 429 494 17,400 -787 Descending Salt Lake Center
Wed 11:28:48 AM 41.4753 -112.4333 141° Southeast 381 438 17,000 -387 Descending Salt Lake Center
Wed 11:29:10 AM 41.4564 -112.4250 162° South 366 421 17,000 -1,254 Level Salt Lake Center
Wed 11:29:55 AM 41.3761 -112.3639 150° Southeast 381 438 15,600 -1,839 Descending Salt Lake Center
Wed 11:30:12 AM 41.3436 -112.3458 157° South 382 440 15,100 -1,612 Descending Salt Lake Center
Wed 11:31:02 AM 41.2717 -112.2908 150° Southeast 367 422 13,800 -1,459 Descending Salt Lake Center
Wed 11:32:03 AM 41.1844 -112.2289 152° Southeast 354 407 12,400 -1,241 Descending Salt Lake Center
Wed 11:32:58 AM 41.1039 -112.1681 150° Southeast 357 411 11,400 -960 Descending Salt Lake Center
Wed 11:33:18 AM 41.0853 -112.1550 152° Southeast 354 407 11,200 -358 Descending Salt Lake Center
Wed 11:34:05 AM 41.0000 -112.1322 169° South 344 396 11,000 -194 Descending Salt Lake Center
Wed 11:34:20 AM 40.9944 -112.1294 159° South 344 396 11,000  Level Salt Lake Center
Wed 11:34:59 AM 40.9242 -112.1181 173° South 336 387 11,000  Level Salt Lake Center
Wed 11:35:22 AM 40.8867 -112.1136 175° South 327 376 11,000  Level Salt Lake Center
Wed 11:36:00 AM 40.8342 -112.1089 176° South 286 329 11,000  Level Salt Lake Center
Wed 11:36:24 AM 40.8111 -112.1011 166° South 261 300 11,000 -984 Level Salt Lake Center
Wed 11:37:01 AM 40.7672 -112.0861 165° South 254 292 10,000 -1,645 Descending Salt Lake Center
Wed 11:37:26 AM 40.7447 -112.0750 159° South 251 289 9,300 -1,574 Descending Salt Lake Center
Wed 11:38:02 AM 40.6997 -112.0608 167° South 247 284 8,400 -1,161 Descending Salt Lake Center
Wed 11:38:28 AM 40.6797 -112.0503 158° South 245 282 8,100 -492 Descending Salt Lake Center
Wed 11:39:03 AM 40.6531 -112.0089 130° Southeast 240 276 7,900 -484 Descending Salt Lake Center
Wed 11:39:30 AM 40.6614 -111.9878 63° Northeast 227 261 7,600 -1,377 Descending Salt Lake Center
Wed 11:40:04 AM 40.6933 -111.9614 32° Northeast 195 224 6,500 -1,742 Descending Salt Lake Center
Wed 11:40:32 AM 40.7150 -111.9608 North 172 198 5,800 -1,500 Descending Salt Lake Center
Wed 11:41:04 AM 40.7367 -111.9633 355° North 152 175 5,000 -1,161 Descending Salt Lake Center
Wed 11:41:34 AM 40.7558 -111.9622 North 148 170 4,600 -457 Descending Salt Lake Center
Wed 11:42:36 AM 40.7906 -111.9614 North 129 148 4,300 -290 Descending Salt Lake Center
Wed 11:44:00 AM 40.7833 -111.9667 270° West  Level FlightAware Approximate

Login

Don't have an account? Register now (free) for customized features, flight alerts, and more!